KRNT - Renton, Washington, USA
Distance from station: W 21mi, 33km
Updated: Mon, 06-Dec-2021 7:35pm PST
Mist, Overcast
Mist, Overcast
 Wind from calm
Wind: Calm
Temperature: 45°F , 7°C
Dew Point: 43°F , 6°C
Humidity: 93%
Barometer: 29.98 inHg , 1015.2 hPa
Visibility: 2 miles , 3 km
Cloud details: 500 ft
2021/12/07 03:35 KRNT 070335Z AUTO 00000KT 2SM BR OVC005 07/06 A2998 RMK AO2 T00670061 $
KBFI - Seattle/Boeing, Washington, USA
Distance from station: W 25mi, 41km
Updated: Mon, 06-Dec-2021 6:53pm PST
Light rain, Mist, Overcast
Light rain, Mist, Overcast
 Wind from calm
Wind: Calm
Temperature: 45°F , 7°C
Dew Point: 45°F , 7°C
Humidity: 100%
Barometer: 29.98 inHg , 1015.2 hPa
Summary: Light rain, Mist
Visibility: 2 1/2 miles , 4 km
Cloud details: 600 ft
1400 ft
2021/12/07 02:53 KBFI 070253Z 00000KT 2 1/2SM -RA BR BKN006 OVC014 07/07 A2998 RMK AO2 RAE0154B52 SLP151 P0000 60000 T00670067 53003
 
KSEA - Seattle/Metro, Washington, USA
Distance from station: W 25mi, 41km
Updated: Mon, 06-Dec-2021 7:14pm PST
Light drizzle, Mist, Overcast
Light drizzle, Mist, Overcast
 Wind from NE
Wind: NE 3 mph , 6 km/h
Temperature: 45°F , 7°C
Dew Point: 43°F , 6°C
Humidity: 93%
Barometer: 29.97 inHg , 1014.9 hPa
Summary: Light drizzle, Mist
Visibility: 1 1/2 miles , 2.4 km
Cloud details: 700 ft
1200 ft
2021/12/07 03:14 KSEA 070314Z 05003KT 1 1/2SM -DZ BR BKN007 OVC012 07/06 A2997 RMK AO2 P0000 T00670061
KSMP - Stampede Pass, Washington, USA
Distance from station: SE 26mi, 41km
Updated: Mon, 06-Dec-2021 7:29pm PST
Mist, Overcast
Mist, Overcast
 Wind from varies
Wind: varies 3 mph , 6 km/h
Temperature: 28°F , -2°C
Dew Point: 28°F , -2°C
Humidity: 100%
Barometer: 29.93 inHg , 1013.5 hPa
Visibility: 3/4 mile , 1.2 km
Cloud details: 300 ft
2021/12/07 03:29 KSMP 070329Z AUTO VRB03KT 3/4SM BR VV003 M02/M02 A2993 RMK AO2 I1001 T10171022 $
 
KPLU - Puyallup/Thun, Washington, USA
Distance from station: SW 36mi, 59km
Updated: Mon, 06-Dec-2021 7:35pm PST

 Wind from calm
Wind: Calm
Temperature: 45°F , 7°C
Dew Point: 45°F , 7°C
Humidity: 100%
Barometer: 29.96 inHg , 1014.6 hPa
Visibility: 9 miles , 14 km
Cloud details: 2000 ft
2021/12/07 03:35 KPLU 070335Z AUTO 00000KT 9SM OVC020 07/07 A2996 RMK AO2
KPAE - Everett, Washington, USA
Distance from station: NW 37mi, 60km
Updated: Mon, 06-Dec-2021 6:53pm PST
Mist, Overcast
Mist, Overcast
 Wind from E
Wind: E 3 mph , 6 km/h
Temperature: 41°F , 5°C
Dew Point: 39°F , 4°C
Humidity: 93%
Barometer: 29.98 inHg , 1015.2 hPa
Visibility: 1 mile , 2 km
Cloud details: 200 ft
1000 ft
2021/12/07 02:53 KPAE 070253Z 10003KT 1SM R16R/P6000FT BR BKN002 OVC010 05/04 A2998 RMK AO2 RAB0154E04B28E47 SLP156 P0001 60001 T00500044 53005
 
KTIW - Tacoma, Washington, USA
Distance from station: WSW 41mi, 66km
Updated: Mon, 06-Dec-2021 6:53pm PST
Mist, Overcast
Mist, Overcast
 Wind from calm
Wind: Calm
Temperature: 43°F , 6°C
Dew Point: 43°F , 6°C
Humidity: 100%
Barometer: 29.96 inHg , 1014.6 hPa
Visibility: 2 miles , 3 km
Cloud details: 200 ft
600 ft
2021/12/07 02:53 KTIW 070253Z 00000KT 2SM BR BKN002 OVC006 06/06 A2996 RMK AO2 RAE52 SLP149 P0003 60005 T00560056 51004 $
KTCM - Tacoma/Mc Chord, Washington, USA
Distance from station: SW 42mi, 67km
Updated: Mon, 06-Dec-2021 7:41pm PST
Light rain, Mist, Overcast
Light rain, Mist, Overcast
 Wind from N
Wind: N 3 mph , 6 km/h
Temperature: 45°F , 7°C
Dew Point: 45°F , 7°C
Humidity: 100%
Barometer: 29.96 inHg , 1014.6 hPa
Summary: Light rain, Mist
Visibility: 6 miles , 10 km
Cloud details: 600 ft
2021/12/07 03:41 KTCM 070341Z AUTO 36003KT 6SM -RA BR OVC006 07/07 A2996 RMK AO2 RAE05DZB05E14DZB36E38RAB38 CIG 002 RWY34 SLP151 $
 
KPWT - Bremerton Ntnl, Washington, USA
Distance from station: W 45mi, 73km
Updated: Mon, 06-Dec-2021 7:11pm PST
Light rain, Mist, Overcast
Light rain, Mist, Overcast
 Wind from NE
Wind: NE 6 mph , 9 km/h
Temperature: 41°F , 5°C
Wind Chill: 37°F , 3°C
Dew Point: 41°F , 5°C
Humidity: 100%
Barometer: 29.98 inHg , 1015.2 hPa
Summary: Light rain, Mist
Visibility: 4 miles , 6 km
Cloud details: 600 ft
2021/12/07 03:11 KPWT 070311Z AUTO 04005KT 4SM -RA BR OVC006 05/05 A2998 RMK AO2 CIG 004V008 P0000
KGRF - Fort Lewis/Gray, Washington, USA
Distance from station: SW 48mi, 77km
Updated: Mon, 06-Dec-2021 7:23pm PST
Light rain, Mist, Overcast
Light rain, Mist, Overcast
 Wind from calm
Wind: Calm
Temperature: 45°F , 7°C
Dew Point: 41°F , 5°C
Humidity: 87%
Barometer: 29.94 inHg , 1013.9 hPa
Summary: Light rain, Mist
Visibility: 3 miles , 5 km
Cloud details: 400 ft
1600 ft
2021/12/07 03:23 KGRF 070323Z 00000KT 3SM -RA BR BKN004 OVC016 07/05 A2994 RMK AO2A RAB23 SLP144 $
 
KAWO - Arlington Muni, Washington, USA
Distance from station: NNW 50mi, 80km
Updated: Mon, 06-Dec-2021 6:56pm PST
Light rain, Mist, Overcast
Light rain, Mist, Overcast
 Wind from N
Wind: N 6 mph , 9 km/h
Temperature: 37°F , 3°C
Wind Chill: 32°F , 0°C
Dew Point: 37°F , 3°C
Humidity: 100%
Barometer: 30.00 inHg , 1015.9 hPa
Summary: Light rain, Mist
Visibility: 5 miles , 8 km
Cloud details: 1100 ft
1900 ft
2021/12/07 02:56 KAWO 070256Z AUTO 01005KT 5SM -RA BR BKN011 OVC019 03/03 A3000 RMK AO2 RAE34B50 SLP164 P0000 60000 T00330028 53005